createdAt,value
2018-06-16T00:00:55.313Z,15.63
2018-06-16T00:03:22.973Z,15.90
2018-06-16T00:05:50.592Z,17.37
2018-06-16T00:08:18.157Z,17.40
2018-06-16T00:10:46.022Z,17.53
2018-06-16T00:13:13.636Z,18.33
2018-06-16T00:15:41.242Z,22.23
2018-06-16T00:18:08.858Z,21.97
2018-06-16T00:20:36.465Z,19.40
2018-06-16T00:23:04.145Z,19.07
2018-06-16T00:25:31.816Z,15.30
2018-06-16T00:27:59.420Z,15.07
2018-06-16T00:30:27.066Z,20.00
2018-06-16T00:32:54.705Z,16.30
2018-06-16T00:35:22.877Z,13.70
2018-06-16T00:37:50.559Z,16.33
2018-06-16T00:40:18.169Z,16.60
2018-06-16T00:42:46.654Z,18.77
2018-06-16T00:45:14.344Z,21.40
2018-06-16T00:47:42.221Z,21.30
2018-06-16T00:50:09.788Z,16.10
2018-06-16T00:52:37.373Z,22.00
2018-06-16T00:55:05.329Z,16.17
2018-06-16T00:57:44.216Z,15.67
2018-06-16T01:00:11.820Z,15.80
2018-06-16T01:02:39.942Z,15.50
2018-06-16T01:05:07.633Z,16.77
2018-06-16T01:07:36.381Z,15.60
2018-06-16T01:10:04.308Z,14.73
2018-06-16T01:12:31.899Z,20.70
2018-06-16T01:14:59.483Z,14.60
2018-06-16T01:17:27.059Z,18.57
2018-06-16T01:19:54.762Z,19.07
2018-06-16T01:22:22.318Z,15.77
2018-06-16T01:24:49.958Z,13.77
2018-06-16T01:27:17.540Z,14.23
2018-06-16T01:29:45.170Z,18.13
2018-06-16T01:32:12.866Z,16.47
2018-06-16T01:34:40.496Z,14.10
2018-06-16T01:37:08.148Z,16.77
2018-06-16T01:39:36.056Z,14.97
2018-06-16T01:42:03.720Z,16.57
2018-06-16T01:44:31.328Z,14.37
2018-06-16T01:46:58.941Z,13.83
2018-06-16T01:49:26.549Z,16.80
2018-06-16T01:51:54.141Z,24.40
2018-06-16T01:54:21.765Z,27.27
2018-06-16T01:56:49.358Z,28.63
2018-06-16T01:59:16.954Z,22.70
2018-06-16T02:01:44.528Z,22.20
2018-06-16T02:04:12.161Z,21.07
2018-06-16T02:06:40.285Z,23.47
2018-06-16T02:09:09.941Z,21.40
2018-06-16T02:11:37.861Z,22.60
2018-06-16T02:14:05.571Z,31.23
2018-06-16T02:16:33.211Z,22.87
2018-06-16T02:19:00.809Z,29.87
2018-06-16T02:21:28.397Z,29.47
2018-06-16T02:23:56.007Z,28.23
2018-06-16T02:26:23.568Z,34.17
2018-06-16T02:28:51.162Z,30.33
2018-06-16T02:31:18.758Z,29.10
2018-06-16T02:33:46.331Z,24.73
2018-06-16T02:36:14.017Z,25.33
2018-06-16T02:38:41.686Z,24.50
2018-06-16T02:41:09.378Z,20.70
2018-06-16T02:43:36.977Z,22.47
2018-06-16T02:46:04.640Z,17.87
2018-06-16T02:48:32.253Z,21.33
2018-06-16T02:50:59.846Z,20.43
2018-06-16T02:53:27.411Z,17.40
2018-06-16T02:55:55.040Z,26.13
2018-06-16T02:58:22.701Z,24.70
2018-06-16T03:00:50.285Z,25.27
2018-06-16T03:03:17.957Z,24.20
2018-06-16T03:05:45.819Z,25.47
2018-06-16T03:08:13.345Z,24.93
2018-06-16T03:10:40.973Z,17.37
2018-06-16T03:13:08.641Z,16.73
2018-06-16T03:15:36.171Z,22.27
2018-06-16T03:18:03.993Z,15.63
2018-06-16T03:20:38.564Z,16.93
2018-06-16T03:23:06.288Z,18.60
2018-06-16T03:25:34.378Z,16.80
2018-06-16T03:28:01.997Z,17.60
2018-06-16T03:30:29.710Z,23.20
2018-06-16T03:32:57.449Z,20.03
2018-06-16T03:35:25.058Z,22.53
2018-06-16T03:37:52.671Z,27.20
2018-06-16T03:40:20.333Z,21.30
2018-06-16T03:42:47.933Z,26.73
2018-06-16T03:45:15.556Z,25.63
2018-06-16T03:47:43.229Z,26.33
2018-06-16T03:50:11.593Z,33.93
2018-06-16T03:52:39.511Z,39.07
2018-06-16T03:55:07.065Z,33.93
2018-06-16T03:57:34.761Z,36.77
2018-06-16T04:00:02.443Z,35.10
2018-06-16T04:02:30.157Z,41.33
2018-06-16T04:04:57.824Z,35.70
2018-06-16T04:07:25.459Z,32.20
2018-06-16T04:09:53.100Z,34.80
2018-06-16T04:12:21.176Z,34.80
2018-06-16T04:14:48.746Z,32.87
2018-06-16T04:17:18.712Z,35.40
2018-06-16T04:19:47.348Z,34.13
2018-06-16T04:22:14.987Z,32.17
2018-06-16T04:24:42.858Z,37.53
2018-06-16T04:27:10.437Z,33.90
2018-06-16T04:29:38.297Z,30.40
2018-06-16T04:32:06.067Z,31.83
2018-06-16T04:34:34.118Z,30.73
2018-06-16T04:37:01.909Z,31.63
2018-06-16T04:39:29.534Z,28.03
2018-06-16T04:41:57.212Z,26.10
2018-06-16T04:44:25.410Z,25.73
2018-06-16T04:46:53.014Z,29.60
2018-06-16T04:49:20.630Z,32.20
2018-06-16T04:51:48.361Z,29.87
2018-06-16T04:54:15.997Z,29.30
2018-06-16T04:56:43.658Z,24.93
2018-06-16T04:59:11.229Z,25.73
2018-06-16T05:01:38.897Z,24.40
2018-06-16T05:04:06.525Z,28.40
2018-06-16T05:06:34.155Z,18.90
2018-06-16T05:09:01.777Z,22.47
2018-06-16T05:11:29.426Z,19.53
2018-06-16T05:13:57.026Z,18.73
2018-06-16T05:16:24.638Z,19.13
2018-06-16T05:18:52.224Z,18.43
2018-06-16T05:21:19.800Z,17.33
2018-06-16T05:23:47.379Z,20.27
2018-06-16T05:26:14.948Z,18.30
2018-06-16T05:28:42.586Z,16.70
2018-06-16T05:31:10.174Z,19.73
2018-06-16T05:33:37.744Z,19.27
2018-06-16T05:36:05.385Z,15.73
2018-06-16T05:38:33.298Z,20.47
2018-06-16T05:41:00.965Z,17.23
2018-06-16T05:43:28.809Z,22.70
2018-06-16T05:45:56.359Z,18.70
2018-06-16T05:48:23.953Z,16.40
2018-06-16T05:50:51.621Z,17.07
2018-06-16T05:53:19.235Z,15.40
2018-06-16T05:55:46.814Z,16.20
2018-06-16T05:58:14.746Z,17.50
2018-06-16T06:00:42.343Z,16.60
2018-06-16T06:03:09.955Z,18.50
2018-06-16T06:05:37.636Z,16.73
2018-06-16T06:08:05.264Z,17.60
2018-06-16T06:10:32.898Z,21.47
2018-06-16T06:13:01.258Z,15.93
2018-06-16T06:15:28.876Z,14.30
2018-06-16T06:17:56.474Z,14.33
2018-06-16T06:20:24.090Z,13.57
2018-06-16T06:22:51.920Z,13.80
2018-06-16T06:25:19.581Z,16.20
2018-06-16T06:27:47.234Z,15.07
2018-06-16T06:30:14.886Z,13.50
2018-06-16T06:32:42.485Z,15.93
2018-06-16T06:35:10.164Z,14.53
2018-06-16T06:37:37.877Z,13.80
2018-06-16T06:40:05.871Z,12.77
2018-06-16T06:42:33.529Z,15.63
2018-06-16T06:45:01.409Z,20.10
2018-06-16T06:47:29.040Z,13.57
2018-06-16T06:49:56.607Z,16.80
2018-06-16T06:52:24.205Z,12.00
2018-06-16T06:54:52.191Z,13.67
2018-06-16T06:57:20.708Z,12.50
2018-06-16T06:59:48.381Z,12.30
2018-06-16T07:02:15.954Z,14.30
2018-06-16T07:04:43.525Z,13.70
2018-06-16T07:07:11.308Z,11.07
2018-06-16T07:09:38.990Z,12.27
2018-06-16T07:12:06.575Z,13.27
2018-06-16T07:14:34.167Z,11.97
2018-06-16T07:17:01.751Z,12.83
2018-06-16T07:19:29.323Z,12.67
2018-06-16T07:21:56.932Z,13.00
2018-06-16T07:24:24.531Z,10.93
2018-06-16T07:26:52.226Z,11.93
2018-06-16T07:29:19.860Z,15.63
2018-06-16T07:31:47.482Z,14.70
2018-06-16T07:34:15.066Z,10.60
2018-06-16T07:36:43.451Z,15.73
2018-06-16T07:39:11.069Z,9.80
2018-06-16T07:41:38.815Z,9.30
2018-06-16T07:44:06.473Z,10.33
2018-06-16T07:46:34.015Z,15.70
2018-06-16T07:49:01.840Z,9.60
2018-06-16T07:51:29.677Z,12.37
2018-06-16T07:53:57.313Z,11.30
2018-06-16T07:56:24.929Z,10.50
2018-06-16T07:58:52.519Z,12.53
2018-06-16T08:01:20.164Z,11.83
2018-06-16T08:03:47.818Z,12.30
2018-06-16T08:06:15.405Z,9.60
2018-06-16T08:08:43.098Z,8.33
2018-06-16T08:11:10.699Z,12.37
2018-06-16T08:13:38.321Z,14.33
2018-06-16T08:16:05.961Z,10.50
2018-06-16T08:18:34.087Z,10.27
2018-06-16T08:21:01.692Z,12.93
2018-06-16T08:23:29.277Z,9.67
2018-06-16T08:25:57.015Z,13.87
2018-06-16T08:28:24.626Z,7.80
2018-06-16T08:30:52.246Z,10.63
2018-06-16T08:33:19.878Z,12.20
2018-06-16T08:35:47.494Z,10.80
2018-06-16T08:38:15.068Z,10.23
2018-06-16T08:40:42.608Z,9.67
2018-06-16T08:43:10.247Z,11.63
2018-06-16T08:45:37.868Z,10.53
2018-06-16T08:48:05.527Z,10.30
2018-06-16T08:50:33.150Z,9.70
2018-06-16T08:53:00.789Z,9.87
2018-06-16T08:55:28.508Z,7.60
2018-06-16T08:57:56.195Z,9.70
2018-06-16T09:00:24.115Z,7.70
2018-06-16T09:02:51.901Z,18.33
2018-06-16T09:05:19.517Z,10.90
2018-06-16T09:07:47.317Z,11.97
2018-06-16T09:10:14.996Z,13.23
2018-06-16T09:12:42.561Z,7.77
2018-06-16T09:15:10.274Z,7.10
2018-06-16T09:17:37.928Z,12.07
2018-06-16T09:20:05.671Z,7.67
2018-06-16T09:22:33.397Z,7.93
2018-06-16T09:25:00.988Z,10.73
2018-06-16T09:27:28.768Z,7.07
2018-06-16T09:29:56.383Z,10.30
2018-06-16T09:32:24.394Z,8.90
2018-06-16T09:34:52.026Z,8.60
2018-06-16T09:37:19.792Z,6.97
2018-06-16T09:39:47.369Z,6.80
2018-06-16T09:42:14.965Z,6.40
2018-06-16T09:44:42.642Z,7.30
2018-06-16T09:47:10.487Z,6.10
2018-06-16T09:49:38.799Z,4.23
2018-06-16T09:52:06.448Z,6.03
2018-06-16T09:54:34.039Z,5.03
2018-06-16T09:57:01.665Z,5.10
2018-06-16T09:59:29.287Z,6.00
2018-06-16T10:01:56.922Z,21.10
2018-06-16T10:04:24.555Z,11.83
2018-06-16T10:06:52.160Z,6.30
2018-06-16T10:09:19.880Z,9.20
2018-06-16T10:11:47.469Z,5.40
2018-06-16T10:14:15.137Z,6.00
2018-06-16T10:16:42.742Z,5.80
2018-06-16T10:19:10.392Z,6.07
2018-06-16T10:21:38.052Z,7.57
2018-06-16T10:24:05.903Z,9.70
2018-06-16T10:26:33.562Z,5.87
2018-06-16T10:29:01.266Z,8.33
2018-06-16T10:31:28.910Z,5.50
2018-06-16T10:33:56.586Z,4.70
2018-06-16T10:36:24.322Z,8.20
2018-06-16T10:38:51.933Z,6.63
2018-06-16T10:41:19.630Z,3.90
2018-06-16T10:43:47.279Z,3.83
2018-06-16T10:46:14.893Z,4.53
2018-06-16T10:48:42.501Z,5.10
2018-06-16T10:51:10.149Z,9.60
2018-06-16T10:53:38.073Z,5.00
2018-06-16T10:56:05.702Z,4.50
2018-06-16T10:58:33.515Z,4.67
2018-06-16T11:01:01.175Z,10.20
2018-06-16T11:03:28.941Z,4.63
2018-06-16T11:05:56.548Z,6.67
2018-06-16T11:08:24.168Z,7.07
2018-06-16T11:10:51.787Z,5.43
2018-06-16T11:13:19.794Z,9.07
2018-06-16T11:15:47.429Z,8.07
2018-06-16T11:18:15.063Z,5.83
2018-06-16T11:20:42.746Z,10.13
2018-06-16T11:23:10.470Z,6.40
2018-06-16T11:25:38.088Z,5.20
2018-06-16T11:28:05.747Z,4.17
2018-06-16T11:30:33.404Z,4.10
2018-06-16T11:33:01.000Z,9.13
2018-06-16T11:35:28.613Z,7.63
2018-06-16T11:37:56.222Z,4.87
2018-06-16T11:40:23.949Z,4.57
2018-06-16T11:42:51.603Z,5.83
2018-06-16T11:45:19.253Z,4.47
2018-06-16T11:47:46.891Z,7.00
2018-06-16T11:50:14.467Z,4.30
2018-06-16T11:52:42.097Z,7.30
2018-06-16T11:55:09.780Z,6.10
2018-06-16T11:57:37.425Z,4.03
2018-06-16T12:00:05.087Z,6.13
2018-06-16T12:02:32.751Z,8.70
2018-06-16T12:05:00.393Z,5.23
2018-06-16T12:07:28.114Z,13.37
2018-06-16T12:09:55.784Z,4.20
2018-06-16T12:12:23.386Z,5.00
2018-06-16T12:14:51.110Z,7.63
2018-06-16T12:17:18.773Z,4.67
2018-06-16T12:19:46.474Z,4.83
2018-06-16T12:22:14.172Z,4.87
2018-06-16T12:24:48.586Z,6.03
2018-06-16T12:27:16.250Z,5.50
2018-06-16T12:29:43.996Z,4.90
2018-06-16T12:32:11.603Z,4.20
2018-06-16T12:34:39.242Z,4.27
2018-06-16T12:37:06.904Z,7.37
2018-06-16T12:39:34.554Z,5.50
2018-06-16T12:42:02.188Z,6.83
2018-06-16T12:44:29.856Z,3.80
2018-06-16T12:46:57.976Z,5.20
2018-06-16T12:49:26.910Z,4.17
2018-06-16T12:51:54.821Z,6.10
2018-06-16T12:54:22.478Z,3.50
2018-06-16T12:56:50.196Z,6.10
2018-06-16T12:59:17.760Z,6.17
2018-06-16T13:01:45.398Z,3.63
2018-06-16T13:04:13.084Z,6.67
2018-06-16T13:06:40.773Z,3.23
2018-06-16T13:09:08.470Z,2.57
2018-06-16T13:11:36.140Z,3.50
2018-06-16T13:14:03.903Z,3.83
2018-06-16T13:16:31.716Z,3.23
2018-06-16T13:18:59.864Z,5.23
2018-06-16T13:21:27.745Z,3.60
2018-06-16T13:23:55.361Z,4.30
2018-06-16T13:26:22.950Z,3.67
2018-06-16T13:28:50.617Z,8.00
2018-06-16T13:31:18.236Z,3.57
2018-06-16T13:33:45.873Z,3.90
2018-06-16T13:36:13.490Z,4.60
2018-06-16T13:38:41.169Z,4.97
2018-06-16T13:41:08.790Z,6.60
2018-06-16T13:43:36.468Z,7.30
2018-06-16T13:46:04.226Z,6.33
2018-06-16T13:48:31.842Z,5.00
2018-06-16T13:50:59.475Z,5.40
2018-06-16T13:53:27.088Z,5.20
2018-06-16T13:55:55.256Z,4.67
2018-06-16T13:58:22.964Z,5.77
2018-06-16T14:00:50.534Z,5.17
2018-06-16T14:03:18.146Z,5.07
2018-06-16T14:05:45.766Z,5.60
2018-06-16T14:08:13.454Z,5.13
2018-06-16T14:10:41.097Z,4.87
2018-06-16T14:13:08.734Z,5.43
2018-06-16T14:15:37.353Z,7.80
2018-06-16T14:18:05.481Z,6.00
2018-06-16T14:20:33.097Z,9.90
2018-06-16T14:23:00.965Z,8.27
2018-06-16T14:25:28.588Z,5.07
2018-06-16T14:27:56.342Z,6.70
2018-06-16T14:30:23.994Z,9.37
2018-06-16T14:32:51.969Z,6.80
2018-06-16T14:35:19.595Z,4.40
2018-06-16T14:37:47.323Z,8.83
2018-06-16T14:40:15.004Z,3.90
2018-06-16T14:42:42.571Z,4.20
2018-06-16T14:45:10.501Z,3.30
2018-06-16T14:47:38.101Z,2.13
2018-06-16T14:50:06.601Z,3.27
2018-06-16T14:52:34.238Z,4.03
2018-06-16T14:55:01.906Z,3.37
2018-06-16T14:57:29.590Z,5.40
2018-06-16T14:59:57.268Z,3.63
2018-06-16T15:02:24.916Z,7.00
2018-06-16T15:04:52.670Z,3.90
2018-06-16T15:07:20.325Z,6.10
2018-06-16T15:09:48.050Z,8.47
2018-06-16T15:12:15.750Z,3.17
2018-06-16T15:14:44.408Z,3.57
2018-06-16T15:17:12.000Z,3.07
2018-06-16T15:19:39.631Z,3.33
2018-06-16T15:22:07.362Z,3.03
2018-06-16T15:24:35.000Z,2.27
2018-06-16T15:27:02.876Z,3.33
2018-06-16T15:29:30.537Z,4.80
2018-06-16T15:31:58.231Z,3.83
2018-06-16T15:34:25.823Z,4.10
2018-06-16T15:36:53.497Z,4.20
2018-06-16T15:39:21.148Z,3.03
2018-06-16T15:41:48.809Z,2.93
2018-06-16T15:44:16.491Z,3.33
2018-06-16T15:46:44.241Z,2.10
2018-06-16T15:49:12.873Z,2.83
2018-06-16T15:51:40.571Z,2.70
2018-06-16T15:54:08.446Z,2.20
2018-06-16T15:56:36.071Z,3.10
2018-06-16T15:59:03.715Z,2.10
2018-06-16T16:01:31.387Z,1.93
2018-06-16T16:03:59.046Z,3.80
2018-06-16T16:06:26.868Z,3.17
2018-06-16T16:08:54.535Z,3.83
2018-06-16T16:11:22.110Z,3.43
2018-06-16T16:13:49.894Z,2.60
2018-06-16T16:16:17.519Z,3.87
2018-06-16T16:18:45.221Z,5.37
2018-06-16T16:21:12.860Z,5.80
2018-06-16T16:23:40.780Z,3.83
2018-06-16T16:26:08.430Z,3.47
2018-06-16T16:28:36.074Z,5.07
2018-06-16T16:31:03.742Z,5.10
2018-06-16T16:33:31.379Z,6.40
2018-06-16T16:35:59.001Z,6.17
2018-06-16T16:38:26.598Z,6.03
2018-06-16T16:40:54.177Z,5.97
2018-06-16T16:43:21.786Z,7.00
2018-06-16T16:45:49.421Z,4.80
2018-06-16T16:48:17.083Z,4.63
2018-06-16T16:50:44.873Z,7.33
2018-06-16T16:53:12.555Z,4.83
2018-06-16T16:55:40.113Z,8.93
2018-06-16T16:58:07.670Z,5.50
2018-06-16T17:00:35.229Z,4.50
2018-06-16T17:03:02.860Z,5.27
2018-06-16T17:05:30.410Z,5.37
2018-06-16T17:07:58.010Z,6.10
2018-06-16T17:10:30.053Z,12.30
2018-06-16T17:12:57.880Z,16.30
2018-06-16T17:15:25.514Z,7.17
2018-06-16T17:17:53.126Z,11.30
2018-06-16T17:20:21.194Z,9.90
2018-06-16T17:22:48.794Z,11.73
2018-06-16T17:25:16.476Z,12.90
2018-06-16T17:27:44.186Z,9.30
2018-06-16T17:30:11.782Z,14.20
2018-06-16T17:32:39.462Z,8.00
2018-06-16T17:35:07.072Z,12.30
2018-06-16T17:37:34.710Z,11.23
2018-06-16T17:40:02.411Z,16.27
2018-06-16T17:42:30.092Z,10.53
2018-06-16T17:44:57.900Z,12.40
2018-06-16T17:47:25.766Z,10.60
2018-06-16T17:49:53.635Z,13.20
2018-06-16T17:52:21.382Z,15.83
2018-06-16T17:54:49.005Z,12.10
2018-06-16T17:57:16.813Z,12.50
2018-06-16T17:59:44.438Z,10.07
2018-06-16T18:02:12.015Z,12.30
2018-06-16T18:04:39.706Z,16.23
2018-06-16T18:07:07.364Z,23.20
2018-06-16T18:09:35.050Z,20.07
2018-06-16T18:12:02.887Z,12.00
2018-06-16T18:14:30.571Z,17.40
2018-06-16T18:16:58.240Z,20.63
2018-06-16T18:19:25.916Z,19.83
2018-06-16T18:21:53.520Z,17.00
2018-06-16T18:24:21.150Z,23.97
2018-06-16T18:26:48.822Z,27.03
2018-06-16T18:29:16.490Z,16.17
2018-06-16T18:31:44.139Z,14.30
2018-06-16T18:34:11.813Z,14.47
2018-06-16T18:36:39.477Z,13.60
2018-06-16T18:39:08.586Z,19.90
2018-06-16T18:41:36.485Z,14.57
2018-06-16T18:44:04.280Z,12.97
2018-06-16T18:46:31.991Z,16.00
2018-06-16T18:48:59.641Z,12.20
2018-06-16T18:51:27.331Z,18.53
2018-06-16T18:53:54.925Z,14.87
2018-06-16T18:56:22.575Z,20.00
2018-06-16T18:58:50.291Z,16.80
2018-06-16T19:01:17.927Z,19.80
2018-06-16T19:03:45.885Z,13.33
2018-06-16T19:06:13.609Z,17.10
2018-06-16T19:08:41.274Z,13.10
2018-06-16T19:11:08.930Z,15.13
2018-06-16T19:13:37.645Z,14.53
2018-06-16T19:16:05.617Z,20.50
2018-06-16T19:18:33.293Z,16.13
2018-06-16T19:21:01.027Z,17.00
2018-06-16T19:23:28.758Z,22.10
2018-06-16T19:25:56.414Z,19.80
2018-06-16T19:28:24.104Z,15.17
2018-06-16T19:30:51.774Z,12.43
2018-06-16T19:33:19.522Z,14.13
2018-06-16T19:35:47.193Z,18.03
2018-06-16T19:38:14.938Z,14.80
2018-06-16T19:40:42.652Z,21.93
2018-06-16T19:43:10.450Z,17.80
2018-06-16T19:45:38.128Z,13.93
2018-06-16T19:48:05.913Z,17.10
2018-06-16T19:50:33.658Z,14.63
2018-06-16T19:53:01.318Z,15.10
2018-06-16T19:55:29.014Z,22.27
2018-06-16T19:57:56.648Z,13.63
2018-06-16T20:00:24.246Z,18.33
2018-06-16T20:02:51.849Z,15.23
2018-06-16T20:05:19.543Z,15.10
2018-06-16T20:10:15.435Z,16.10
2018-06-16T20:12:43.035Z,17.53
2018-06-16T20:15:10.685Z,21.80
2018-06-16T20:17:38.418Z,19.73
2018-06-16T20:20:06.957Z,17.60
2018-06-16T20:22:34.736Z,15.60
2018-06-16T20:25:02.355Z,17.57
2018-06-16T20:27:29.956Z,16.07
2018-06-16T20:29:57.656Z,18.43
2018-06-16T20:32:25.325Z,17.23
2018-06-16T20:34:52.970Z,18.73
2018-06-16T20:37:20.670Z,16.70
2018-06-16T20:39:48.528Z,17.73
2018-06-16T20:42:16.149Z,17.30
2018-06-16T20:44:44.506Z,23.63
2018-06-16T20:47:12.148Z,17.23
2018-06-16T20:49:39.830Z,18.60
2018-06-16T20:52:07.623Z,19.67
2018-06-16T20:54:35.258Z,24.83
2018-06-16T20:57:02.906Z,17.67
2018-06-16T20:59:30.580Z,17.20
2018-06-16T21:01:58.455Z,17.00
2018-06-16T21:04:26.080Z,23.33
2018-06-16T21:06:53.748Z,19.37
2018-06-16T21:09:21.395Z,18.87
2018-06-16T21:11:49.026Z,22.17
2018-06-16T21:14:17.594Z,23.30
2018-06-16T21:16:45.217Z,19.20
2018-06-16T21:19:12.863Z,22.23
2018-06-16T21:21:40.543Z,24.83
2018-06-16T21:24:08.175Z,22.80
2018-06-16T21:26:35.856Z,27.30
2018-06-16T21:29:03.636Z,24.83
2018-06-16T21:31:31.244Z,19.27
2018-06-16T21:33:58.918Z,22.80
2018-06-16T21:36:26.544Z,25.87
2018-06-16T21:38:54.116Z,27.80
2018-06-16T21:41:21.736Z,26.40
2018-06-16T21:43:49.397Z,20.93
2018-06-16T21:46:18.039Z,23.23
2018-06-16T21:48:45.687Z,21.87
2018-06-16T21:51:14.127Z,24.30
2018-06-16T21:53:41.763Z,25.40
2018-06-16T21:56:09.406Z,17.90
2018-06-16T21:58:37.295Z,20.13
2018-06-16T22:01:05.162Z,17.40
2018-06-16T22:03:32.781Z,18.00
2018-06-16T22:06:01.507Z,22.00
2018-06-16T22:08:30.889Z,17.33
2018-06-16T22:10:59.251Z,18.80
2018-06-16T22:13:27.332Z,21.47
2018-06-16T22:15:54.952Z,21.30
2018-06-16T22:18:22.644Z,18.27
2018-06-16T22:20:50.267Z,16.30
2018-06-16T22:23:17.943Z,21.90
2018-06-16T22:25:45.620Z,18.40
2018-06-16T22:28:13.385Z,21.80
2018-06-16T22:30:41.064Z,20.50
2018-06-16T22:33:08.650Z,19.80
2018-06-16T22:35:36.353Z,18.73
2018-06-16T22:38:04.311Z,19.07
2018-06-16T22:40:32.007Z,18.10
2018-06-16T22:42:59.649Z,14.60
2018-06-16T22:45:27.239Z,12.67
2018-06-16T22:47:54.838Z,17.77
2018-06-16T22:50:22.449Z,22.70
2018-06-16T22:52:50.618Z,18.17
2018-06-16T22:55:18.263Z,15.60
2018-06-16T22:57:45.933Z,18.70
2018-06-16T23:00:20.627Z,13.80
2018-06-16T23:02:48.455Z,18.20
2018-06-16T23:05:16.183Z,18.17
2018-06-16T23:07:43.785Z,18.73
2018-06-16T23:10:11.432Z,20.30
2018-06-16T23:12:39.049Z,16.43
2018-06-16T23:15:06.701Z,14.60
2018-06-16T23:17:34.257Z,14.63
2018-06-16T23:20:02.094Z,17.00
2018-06-16T23:22:29.715Z,15.80
2018-06-16T23:24:57.352Z,15.17
2018-06-16T23:27:24.971Z,18.83
2018-06-16T23:29:52.616Z,12.93
2018-06-16T23:32:20.242Z,13.63
2018-06-16T23:34:47.830Z,15.10
2018-06-16T23:37:15.488Z,12.47
2018-06-16T23:39:43.124Z,11.90
2018-06-16T23:42:10.742Z,11.33
2018-06-16T23:44:38.439Z,11.60
2018-06-16T23:47:06.136Z,14.37
2018-06-16T23:49:33.811Z,14.23
2018-06-16T23:52:01.432Z,12.20
2018-06-16T23:54:29.329Z,13.60
2018-06-16T23:56:56.976Z,17.63
2018-06-16T23:59:24.773Z,15.13
